sensor_id;sensor_type;location;lat;lon;timestamp;P1;durP1;ratioP1;P2;durP2;ratioP2
16870;SDS011;8552;48.120;-1.456;2022-09-21T00:00:38;4.05;;;3.33;;
16870;SDS011;8552;48.120;-1.456;2022-09-21T00:03:05;4.78;;;2.88;;
16870;SDS011;8552;48.120;-1.456;2022-09-21T00:05:31;2.85;;;2.60;;
16870;SDS011;8552;48.120;-1.456;2022-09-21T00:08:01;5.60;;;3.00;;
16870;SDS011;8552;48.120;-1.456;2022-09-21T00:10:29;3.00;;;2.65;;
16870;SDS011;8552;48.120;-1.456;2022-09-21T00:12:55;3.38;;;3.00;;
16870;SDS011;8552;48.120;-1.456;2022-09-21T00:15:22;4.38;;;2.70;;
16870;SDS011;8552;48.120;-1.456;2022-09-21T00:17:50;4.75;;;3.00;;
16870;SDS011;8552;48.120;-1.456;2022-09-21T00:20:17;3.60;;;3.08;;
16870;SDS011;8552;48.120;-1.456;2022-09-21T00:22:44;3.53;;;3.22;;
16870;SDS011;8552;48.120;-1.456;2022-09-21T00:25:10;5.18;;;4.20;;
16870;SDS011;8552;48.120;-1.456;2022-09-21T00:27:36;6.22;;;3.72;;
16870;SDS011;8552;48.120;-1.456;2022-09-21T00:30:02;4.15;;;3.75;;
16870;SDS011;8552;48.120;-1.456;2022-09-21T00:32:29;5.13;;;3.78;;
16870;SDS011;8552;48.120;-1.456;2022-09-21T00:34:56;3.97;;;3.10;;
16870;SDS011;8552;48.120;-1.456;2022-09-21T00:37:24;3.88;;;3.00;;
16870;SDS011;8552;48.120;-1.456;2022-09-21T00:39:51;4.43;;;3.70;;
16870;SDS011;8552;48.120;-1.456;2022-09-21T00:44:42;5.30;;;3.50;;
16870;SDS011;8552;48.120;-1.456;2022-09-21T00:47:09;4.03;;;3.50;;
16870;SDS011;8552;48.120;-1.456;2022-09-21T00:49:42;6.05;;;4.15;;
16870;SDS011;8552;48.120;-1.456;2022-09-21T00:52:13;6.18;;;3.58;;
16870;SDS011;8552;48.120;-1.456;2022-09-21T00:54:45;5.55;;;3.55;;
16870;SDS011;8552;48.120;-1.456;2022-09-21T00:57:15;3.83;;;3.42;;
16870;SDS011;8552;48.120;-1.456;2022-09-21T00:59:42;3.83;;;3.33;;
16870;SDS011;8552;48.120;-1.456;2022-09-21T01:02:09;4.97;;;3.58;;
16870;SDS011;8552;48.120;-1.456;2022-09-21T01:04:35;5.00;;;3.38;;
16870;SDS011;8552;48.120;-1.456;2022-09-21T01:07:03;4.57;;;3.90;;
16870;SDS011;8552;48.120;-1.456;2022-09-21T01:09:31;5.53;;;3.83;;
16870;SDS011;8552;48.120;-1.456;2022-09-21T01:14:57;6.53;;;3.95;;
16870;SDS011;8552;48.120;-1.456;2022-09-21T01:31:23;9.25;;;4.35;;
16870;SDS011;8552;48.120;-1.456;2022-09-21T01:33:53;6.07;;;3.47;;
16870;SDS011;8552;48.120;-1.456;2022-09-21T01:36:24;6.78;;;4.00;;
16870;SDS011;8552;48.120;-1.456;2022-09-21T01:38:55;4.78;;;4.22;;
16870;SDS011;8552;48.120;-1.456;2022-09-21T01:41:30;5.78;;;4.05;;
16870;SDS011;8552;48.120;-1.456;2022-09-21T01:43:57;6.68;;;4.50;;
16870;SDS011;8552;48.120;-1.456;2022-09-21T01:46:32;5.95;;;4.15;;
16870;SDS011;8552;48.120;-1.456;2022-09-21T01:49:02;6.32;;;4.38;;
16870;SDS011;8552;48.120;-1.456;2022-09-21T01:51:33;6.05;;;4.70;;
16870;SDS011;8552;48.120;-1.456;2022-09-21T01:54:03;6.53;;;5.03;;
16870;SDS011;8552;48.120;-1.456;2022-09-21T01:56:44;7.00;;;4.68;;
16870;SDS011;8552;48.120;-1.456;2022-09-21T01:59:17;7.93;;;4.43;;
16870;SDS011;8552;48.120;-1.456;2022-09-21T02:01:52;5.57;;;4.13;;
16870;SDS011;8552;48.120;-1.456;2022-09-21T02:04:21;6.13;;;4.70;;
16870;SDS011;8552;48.120;-1.456;2022-09-21T02:06:48;5.43;;;4.07;;
16870;SDS011;8552;48.120;-1.456;2022-09-21T02:09:14;11.23;;;5.03;;
16870;SDS011;8552;48.120;-1.456;2022-09-21T02:11:42;9.85;;;4.82;;
16870;SDS011;8552;48.120;-1.456;2022-09-21T02:14:30;8.38;;;4.75;;
16870;SDS011;8552;48.120;-1.456;2022-09-21T02:17:05;8.68;;;4.70;;
16870;SDS011;8552;48.120;-1.456;2022-09-21T02:20:02;7.85;;;4.40;;
16870;SDS011;8552;48.120;-1.456;2022-09-21T02:31:05;11.05;;;4.70;;
16870;SDS011;8552;48.120;-1.456;2022-09-21T02:33:40;6.93;;;4.50;;
16870;SDS011;8552;48.120;-1.456;2022-09-21T02:36:28;4.80;;;4.15;;
16870;SDS011;8552;48.120;-1.456;2022-09-21T02:39:09;7.13;;;4.90;;
16870;SDS011;8552;48.120;-1.456;2022-09-21T02:44:39;7.28;;;4.78;;
16870;SDS011;8552;48.120;-1.456;2022-09-21T02:47:13;9.82;;;5.30;;
16870;SDS011;8552;48.120;-1.456;2022-09-21T02:49:45;7.28;;;4.78;;
16870;SDS011;8552;48.120;-1.456;2022-09-21T02:52:16;6.25;;;4.60;;
16870;SDS011;8552;48.120;-1.456;2022-09-21T02:54:43;8.70;;;4.93;;
16870;SDS011;8552;48.120;-1.456;2022-09-21T02:57:11;7.20;;;4.30;;
16870;SDS011;8552;48.120;-1.456;2022-09-21T02:59:41;8.93;;;5.00;;
16870;SDS011;8552;48.120;-1.456;2022-09-21T03:02:08;6.55;;;4.70;;
16870;SDS011;8552;48.120;-1.456;2022-09-21T03:04:36;8.63;;;4.70;;
16870;SDS011;8552;48.120;-1.456;2022-09-21T03:07:05;5.40;;;4.60;;
16870;SDS011;8552;48.120;-1.456;2022-09-21T03:09:31;6.30;;;4.28;;
16870;SDS011;8552;48.120;-1.456;2022-09-21T03:11:57;6.03;;;4.50;;
16870;SDS011;8552;48.120;-1.456;2022-09-21T03:14:22;6.93;;;4.57;;
16870;SDS011;8552;48.120;-1.456;2022-09-21T03:16:48;5.43;;;4.72;;
16870;SDS011;8552;48.120;-1.456;2022-09-21T03:19:14;5.90;;;5.13;;
16870;SDS011;8552;48.120;-1.456;2022-09-21T03:21:40;6.80;;;4.55;;
16870;SDS011;8552;48.120;-1.456;2022-09-21T03:24:06;5.97;;;4.30;;
16870;SDS011;8552;48.120;-1.456;2022-09-21T03:26:31;7.53;;;4.35;;
16870;SDS011;8552;48.120;-1.456;2022-09-21T03:28:57;8.32;;;4.60;;
16870;SDS011;8552;48.120;-1.456;2022-09-21T03:31:23;7.03;;;4.72;;
16870;SDS011;8552;48.120;-1.456;2022-09-21T03:33:49;5.78;;;4.38;;
16870;SDS011;8552;48.120;-1.456;2022-09-21T03:36:14;10.68;;;5.20;;
16870;SDS011;8552;48.120;-1.456;2022-09-21T03:38:40;7.10;;;4.07;;
16870;SDS011;8552;48.120;-1.456;2022-09-21T03:41:06;6.05;;;4.35;;
16870;SDS011;8552;48.120;-1.456;2022-09-21T03:43:32;4.60;;;4.00;;
16870;SDS011;8552;48.120;-1.456;2022-09-21T03:45:58;6.40;;;5.15;;
16870;SDS011;8552;48.120;-1.456;2022-09-21T03:48:23;6.82;;;5.15;;
16870;SDS011;8552;48.120;-1.456;2022-09-21T03:50:49;5.38;;;4.40;;
16870;SDS011;8552;48.120;-1.456;2022-09-21T03:53:15;6.10;;;5.47;;
16870;SDS011;8552;48.120;-1.456;2022-09-21T03:55:41;6.63;;;5.07;;
16870;SDS011;8552;48.120;-1.456;2022-09-21T03:58:07;6.45;;;4.90;;
16870;SDS011;8552;48.120;-1.456;2022-09-21T04:00:34;6.55;;;4.78;;
16870;SDS011;8552;48.120;-1.456;2022-09-21T04:03:00;6.65;;;4.80;;
16870;SDS011;8552;48.120;-1.456;2022-09-21T04:05:26;6.82;;;5.07;;
16870;SDS011;8552;48.120;-1.456;2022-09-21T04:07:52;6.22;;;4.40;;
16870;SDS011;8552;48.120;-1.456;2022-09-21T04:10:19;8.32;;;5.65;;
16870;SDS011;8552;48.120;-1.456;2022-09-21T04:12:57;6.57;;;5.00;;
16870;SDS011;8552;48.120;-1.456;2022-09-21T04:15:26;13.20;;;4.82;;
16870;SDS011;8552;48.120;-1.456;2022-09-21T04:17:52;5.47;;;4.22;;
16870;SDS011;8552;48.120;-1.456;2022-09-21T04:20:19;5.38;;;4.38;;
16870;SDS011;8552;48.120;-1.456;2022-09-21T04:22:45;7.20;;;4.72;;
16870;SDS011;8552;48.120;-1.456;2022-09-21T04:25:11;7.32;;;5.05;;
16870;SDS011;8552;48.120;-1.456;2022-09-21T04:27:38;6.78;;;4.88;;
16870;SDS011;8552;48.120;-1.456;2022-09-21T04:30:04;10.10;;;4.60;;
16870;SDS011;8552;48.120;-1.456;2022-09-21T04:32:30;5.15;;;4.03;;
16870;SDS011;8552;48.120;-1.456;2022-09-21T04:34:56;4.97;;;4.47;;
16870;SDS011;8552;48.120;-1.456;2022-09-21T04:37:22;9.70;;;4.80;;
16870;SDS011;8552;48.120;-1.456;2022-09-21T04:39:48;7.22;;;5.45;;
16870;SDS011;8552;48.120;-1.456;2022-09-21T04:42:13;6.18;;;4.30;;
16870;SDS011;8552;48.120;-1.456;2022-09-21T04:44:39;5.88;;;4.97;;
16870;SDS011;8552;48.120;-1.456;2022-09-21T04:47:05;6.40;;;4.63;;
16870;SDS011;8552;48.120;-1.456;2022-09-21T04:49:31;8.45;;;4.75;;
16870;SDS011;8552;48.120;-1.456;2022-09-21T04:51:56;5.25;;;4.25;;
16870;SDS011;8552;48.120;-1.456;2022-09-21T04:54:22;7.53;;;5.70;;
16870;SDS011;8552;48.120;-1.456;2022-09-21T04:56:48;9.73;;;5.15;;
16870;SDS011;8552;48.120;-1.456;2022-09-21T04:59:13;7.25;;;5.43;;
16870;SDS011;8552;48.120;-1.456;2022-09-21T05:01:39;6.57;;;5.43;;
16870;SDS011;8552;48.120;-1.456;2022-09-21T05:04:05;8.95;;;4.88;;
16870;SDS011;8552;48.120;-1.456;2022-09-21T05:06:31;8.32;;;5.55;;
16870;SDS011;8552;48.120;-1.456;2022-09-21T05:08:58;10.43;;;5.38;;
16870;SDS011;8552;48.120;-1.456;2022-09-21T05:11:42;7.55;;;6.03;;
16870;SDS011;8552;48.120;-1.456;2022-09-21T05:14:08;6.30;;;5.25;;
16870;SDS011;8552;48.120;-1.456;2022-09-21T05:16:35;9.43;;;6.00;;
16870;SDS011;8552;48.120;-1.456;2022-09-21T05:19:00;9.20;;;6.50;;
16870;SDS011;8552;48.120;-1.456;2022-09-21T05:21:27;7.47;;;5.18;;
16870;SDS011;8552;48.120;-1.456;2022-09-21T05:23:54;6.57;;;5.25;;
16870;SDS011;8552;48.120;-1.456;2022-09-21T05:26:21;5.07;;;4.43;;
16870;SDS011;8552;48.120;-1.456;2022-09-21T05:28:47;7.15;;;5.22;;
16870;SDS011;8552;48.120;-1.456;2022-09-21T05:33:43;7.47;;;5.15;;
16870;SDS011;8552;48.120;-1.456;2022-09-21T05:39:26;9.27;;;5.10;;
16870;SDS011;8552;48.120;-1.456;2022-09-21T05:41:52;7.32;;;5.13;;
16870;SDS011;8552;48.120;-1.456;2022-09-21T05:44:19;6.38;;;4.95;;
16870;SDS011;8552;48.120;-1.456;2022-09-21T05:46:49;5.00;;;3.92;;
16870;SDS011;8552;48.120;-1.456;2022-09-21T05:57:54;6.80;;;4.38;;
16870;SDS011;8552;48.120;-1.456;2022-09-21T06:00:44;4.70;;;4.20;;
16870;SDS011;8552;48.120;-1.456;2022-09-21T06:05:56;6.45;;;4.70;;
16870;SDS011;8552;48.120;-1.456;2022-09-21T06:08:23;5.43;;;4.13;;
16870;SDS011;8552;48.120;-1.456;2022-09-21T06:10:50;6.53;;;4.80;;
16870;SDS011;8552;48.120;-1.456;2022-09-21T06:13:16;6.60;;;5.28;;
16870;SDS011;8552;48.120;-1.456;2022-09-21T06:15:42;6.15;;;4.82;;
16870;SDS011;8552;48.120;-1.456;2022-09-21T06:18:08;7.55;;;4.40;;
16870;SDS011;8552;48.120;-1.456;2022-09-21T06:20:34;5.85;;;4.95;;
16870;SDS011;8552;48.120;-1.456;2022-09-21T06:23:00;5.60;;;4.90;;
16870;SDS011;8552;48.120;-1.456;2022-09-21T06:25:30;6.60;;;5.35;;
16870;SDS011;8552;48.120;-1.456;2022-09-21T06:28:03;8.88;;;5.95;;
16870;SDS011;8552;48.120;-1.456;2022-09-21T06:30:31;12.48;;;7.55;;
16870;SDS011;8552;48.120;-1.456;2022-09-21T06:32:59;13.82;;;7.22;;
16870;SDS011;8552;48.120;-1.456;2022-09-21T06:35:26;7.60;;;6.30;;
16870;SDS011;8552;48.120;-1.456;2022-09-21T06:37:55;11.00;;;6.75;;
16870;SDS011;8552;48.120;-1.456;2022-09-21T06:40:22;8.27;;;5.70;;
16870;SDS011;8552;48.120;-1.456;2022-09-21T06:42:48;8.85;;;7.07;;
16870;SDS011;8552;48.120;-1.456;2022-09-21T06:45:14;9.35;;;5.82;;
16870;SDS011;8552;48.120;-1.456;2022-09-21T06:47:45;10.20;;;5.53;;
16870;SDS011;8552;48.120;-1.456;2022-09-21T06:50:11;7.80;;;5.65;;
16870;SDS011;8552;48.120;-1.456;2022-09-21T06:52:37;7.22;;;5.75;;
16870;SDS011;8552;48.120;-1.456;2022-09-21T06:55:04;10.80;;;5.95;;
16870;SDS011;8552;48.120;-1.456;2022-09-21T06:57:30;8.73;;;6.60;;
16870;SDS011;8552;48.120;-1.456;2022-09-21T06:59:56;11.65;;;7.50;;
16870;SDS011;8552;48.120;-1.456;2022-09-21T07:02:22;12.93;;;7.05;;
16870;SDS011;8552;48.120;-1.456;2022-09-21T07:04:47;10.48;;;7.63;;
16870;SDS011;8552;48.120;-1.456;2022-09-21T07:07:13;11.75;;;7.35;;
16870;SDS011;8552;48.120;-1.456;2022-09-21T07:09:39;10.15;;;6.97;;
16870;SDS011;8552;48.120;-1.456;2022-09-21T07:12:05;9.75;;;7.15;;
16870;SDS011;8552;48.120;-1.456;2022-09-21T07:14:32;8.75;;;7.05;;
16870;SDS011;8552;48.120;-1.456;2022-09-21T07:16:58;12.48;;;7.03;;
16870;SDS011;8552;48.120;-1.456;2022-09-21T07:19:24;10.85;;;7.28;;
16870;SDS011;8552;48.120;-1.456;2022-09-21T07:21:52;10.63;;;7.05;;
16870;SDS011;8552;48.120;-1.456;2022-09-21T07:24:18;9.45;;;7.50;;
16870;SDS011;8552;48.120;-1.456;2022-09-21T07:26:44;9.43;;;6.78;;
16870;SDS011;8552;48.120;-1.456;2022-09-21T07:29:09;8.68;;;7.47;;
16870;SDS011;8552;48.120;-1.456;2022-09-21T07:31:35;8.93;;;6.40;;
16870;SDS011;8552;48.120;-1.456;2022-09-21T07:34:01;9.35;;;7.20;;
16870;SDS011;8552;48.120;-1.456;2022-09-21T07:36:26;11.15;;;7.57;;
16870;SDS011;8552;48.120;-1.456;2022-09-21T07:38:52;11.40;;;6.47;;
16870;SDS011;8552;48.120;-1.456;2022-09-21T07:41:18;8.43;;;6.10;;
16870;SDS011;8552;48.120;-1.456;2022-09-21T07:43:44;8.82;;;5.97;;
16870;SDS011;8552;48.120;-1.456;2022-09-21T07:46:12;9.05;;;6.03;;
16870;SDS011;8552;48.120;-1.456;2022-09-21T07:48:39;16.40;;;6.38;;
16870;SDS011;8552;48.120;-1.456;2022-09-21T07:51:06;7.80;;;6.18;;
16870;SDS011;8552;48.120;-1.456;2022-09-21T07:53:34;9.07;;;5.30;;
16870;SDS011;8552;48.120;-1.456;2022-09-21T07:56:04;6.55;;;5.55;;
16870;SDS011;8552;48.120;-1.456;2022-09-21T07:58:32;7.28;;;5.38;;
16870;SDS011;8552;48.120;-1.456;2022-09-21T08:01:18;8.10;;;5.63;;
16870;SDS011;8552;48.120;-1.456;2022-09-21T08:03:44;5.82;;;5.22;;
16870;SDS011;8552;48.120;-1.456;2022-09-21T08:06:12;7.18;;;5.50;;
16870;SDS011;8552;48.120;-1.456;2022-09-21T08:08:38;7.05;;;5.28;;
16870;SDS011;8552;48.120;-1.456;2022-09-21T08:11:05;6.07;;;5.47;;
16870;SDS011;8552;48.120;-1.456;2022-09-21T08:13:32;11.25;;;5.13;;
16870;SDS011;8552;48.120;-1.456;2022-09-21T08:15:59;7.20;;;5.15;;
16870;SDS011;8552;48.120;-1.456;2022-09-21T08:18:25;6.85;;;5.57;;
16870;SDS011;8552;48.120;-1.456;2022-09-21T08:20:57;7.20;;;4.78;;
16870;SDS011;8552;48.120;-1.456;2022-09-21T08:23:27;9.10;;;4.45;;
16870;SDS011;8552;48.120;-1.456;2022-09-21T08:26:02;7.75;;;4.78;;
16870;SDS011;8552;48.120;-1.456;2022-09-21T08:28:32;4.85;;;4.30;;
16870;SDS011;8552;48.120;-1.456;2022-09-21T08:31:00;6.88;;;3.72;;
16870;SDS011;8552;48.120;-1.456;2022-09-21T08:33:30;9.10;;;4.32;;
16870;SDS011;8552;48.120;-1.456;2022-09-21T08:35:57;7.82;;;4.97;;
16870;SDS011;8552;48.120;-1.456;2022-09-21T08:38:24;6.63;;;4.35;;
16870;SDS011;8552;48.120;-1.456;2022-09-21T08:40:51;8.60;;;4.50;;
16870;SDS011;8552;48.120;-1.456;2022-09-21T08:43:26;6.90;;;5.20;;
16870;SDS011;8552;48.120;-1.456;2022-09-21T08:45:55;5.78;;;5.18;;
16870;SDS011;8552;48.120;-1.456;2022-09-21T08:48:31;4.70;;;3.78;;
16870;SDS011;8552;48.120;-1.456;2022-09-21T08:51:04;6.22;;;4.10;;
16870;SDS011;8552;48.120;-1.456;2022-09-21T08:53:33;6.10;;;4.03;;
16870;SDS011;8552;48.120;-1.456;2022-09-21T08:56:02;6.22;;;3.35;;
16870;SDS011;8552;48.120;-1.456;2022-09-21T08:58:29;5.88;;;3.22;;
16870;SDS011;8552;48.120;-1.456;2022-09-21T09:01:05;3.40;;;3.03;;
16870;SDS011;8552;48.120;-1.456;2022-09-21T09:04:29;3.88;;;2.85;;
16870;SDS011;8552;48.120;-1.456;2022-09-21T09:10:02;3.05;;;2.63;;
16870;SDS011;8552;48.120;-1.456;2022-09-21T09:20:53;11.10;;;2.40;;
16870;SDS011;8552;48.120;-1.456;2022-09-21T09:23:23;6.40;;;2.65;;
16870;SDS011;8552;48.120;-1.456;2022-09-21T09:25:57;2.42;;;2.22;;
16870;SDS011;8552;48.120;-1.456;2022-09-21T09:28:35;3.97;;;2.20;;
16870;SDS011;8552;48.120;-1.456;2022-09-21T09:31:11;3.10;;;1.77;;
16870;SDS011;8552;48.120;-1.456;2022-09-21T09:36:24;2.97;;;1.75;;
16870;SDS011;8552;48.120;-1.456;2022-09-21T09:38:56;3.17;;;2.00;;
16870;SDS011;8552;48.120;-1.456;2022-09-21T09:51:52;2.75;;;1.65;;
16870;SDS011;8552;48.120;-1.456;2022-09-21T09:54:17;1.85;;;1.27;;
16870;SDS011;8552;48.120;-1.456;2022-09-21T09:56:48;7.38;;;1.98;;
16870;SDS011;8552;48.120;-1.456;2022-09-21T10:04:53;1.55;;;1.27;;
16870;SDS011;8552;48.120;-1.456;2022-09-21T10:08:01;2.08;;;1.17;;
16870;SDS011;8552;48.120;-1.456;2022-09-21T10:10:29;2.83;;;0.90;;
16870;SDS011;8552;48.120;-1.456;2022-09-21T10:16:22;2.20;;;0.93;;
16870;SDS011;8552;48.120;-1.456;2022-09-21T10:21:26;1.83;;;0.85;;
16870;SDS011;8552;48.120;-1.456;2022-09-21T10:24:03;2.10;;;0.88;;
16870;SDS011;8552;48.120;-1.456;2022-09-21T10:26:33;3.90;;;1.30;;
16870;SDS011;8552;48.120;-1.456;2022-09-21T10:31:57;3.83;;;1.05;;
16870;SDS011;8552;48.120;-1.456;2022-09-21T10:34:28;1.92;;;1.20;;
16870;SDS011;8552;48.120;-1.456;2022-09-21T10:36:56;1.65;;;0.60;;
16870;SDS011;8552;48.120;-1.456;2022-09-21T10:39:32;3.30;;;0.77;;
16870;SDS011;8552;48.120;-1.456;2022-09-21T10:42:11;4.43;;;0.75;;
16870;SDS011;8552;48.120;-1.456;2022-09-21T10:44:42;1.92;;;0.77;;
16870;SDS011;8552;48.120;-1.456;2022-09-21T10:49:56;3.22;;;0.93;;
16870;SDS011;8552;48.120;-1.456;2022-09-21T10:52:30;1.05;;;0.80;;
16870;SDS011;8552;48.120;-1.456;2022-09-21T10:54:59;0.82;;;0.55;;
16870;SDS011;8552;48.120;-1.456;2022-09-21T10:57:25;1.02;;;0.70;;
16870;SDS011;8552;48.120;-1.456;2022-09-21T10:59:53;1.05;;;0.73;;
16870;SDS011;8552;48.120;-1.456;2022-09-21T11:02:33;1.95;;;0.70;;
16870;SDS011;8552;48.120;-1.456;2022-09-21T11:10:37;5.50;;;1.02;;
16870;SDS011;8552;48.120;-1.456;2022-09-21T11:27:05;2.80;;;0.82;;
16870;SDS011;8552;48.120;-1.456;2022-09-21T11:29:57;2.53;;;0.98;;
16870;SDS011;8552;48.120;-1.456;2022-09-21T11:35:38;1.25;;;0.85;;
16870;SDS011;8552;48.120;-1.456;2022-09-21T12:08:38;2.05;;;0.70;;
16870;SDS011;8552;48.120;-1.456;2022-09-21T12:13:51;0.85;;;0.50;;
16870;SDS011;8552;48.120;-1.456;2022-09-21T12:22:41;1.75;;;0.50;;
16870;SDS011;8552;48.120;-1.456;2022-09-21T12:25:12;1.30;;;0.40;;
16870;SDS011;8552;48.120;-1.456;2022-09-21T12:27:38;3.03;;;0.30;;
16870;SDS011;8552;48.120;-1.456;2022-09-21T12:30:11;1.92;;;0.40;;
16870;SDS011;8552;48.120;-1.456;2022-09-21T12:35:27;0.30;;;0.30;;
16870;SDS011;8552;48.120;-1.456;2022-09-21T12:38:22;1.33;;;0.30;;
16870;SDS011;8552;48.120;-1.456;2022-09-21T12:40:57;1.35;;;0.30;;
16870;SDS011;8552;48.120;-1.456;2022-09-21T12:43:50;3.22;;;0.30;;
16870;SDS011;8552;48.120;-1.456;2022-09-21T12:46:35;1.70;;;0.20;;
16870;SDS011;8552;48.120;-1.456;2022-09-21T12:49:13;0.55;;;0.30;;
16870;SDS011;8552;48.120;-1.456;2022-09-21T12:51:45;1.25;;;0.25;;
16870;SDS011;8552;48.120;-1.456;2022-09-21T12:54:18;0.32;;;0.20;;
16870;SDS011;8552;48.120;-1.456;2022-09-21T12:59:54;1.13;;;0.28;;
16870;SDS011;8552;48.120;-1.456;2022-09-21T13:05:06;0.20;;;0.20;;
16870;SDS011;8552;48.120;-1.456;2022-09-21T13:12:57;0.38;;;0.20;;
16870;SDS011;8552;48.120;-1.456;2022-09-21T13:15:26;1.95;;;0.50;;
16870;SDS011;8552;48.120;-1.456;2022-09-21T13:17:56;3.05;;;0.47;;
16870;SDS011;8552;48.120;-1.456;2022-09-21T13:20:24;0.40;;;0.38;;
16870;SDS011;8552;48.120;-1.456;2022-09-21T13:22:50;0.77;;;0.47;;
16870;SDS011;8552;48.120;-1.456;2022-09-21T13:25:25;1.33;;;0.40;;
16870;SDS011;8552;48.120;-1.456;2022-09-21T13:38:31;0.40;;;0.30;;
16870;SDS011;8552;48.120;-1.456;2022-09-21T13:51:48;0.55;;;0.40;;
16870;SDS011;8552;48.120;-1.456;2022-09-21T13:54:14;0.30;;;0.20;;
16870;SDS011;8552;48.120;-1.456;2022-09-21T13:56:41;2.28;;;0.32;;
16870;SDS011;8552;48.120;-1.456;2022-09-21T13:59:11;0.68;;;0.50;;
16870;SDS011;8552;48.120;-1.456;2022-09-21T14:01:47;0.30;;;0.30;;
16870;SDS011;8552;48.120;-1.456;2022-09-21T14:06:49;0.82;;;0.35;;
16870;SDS011;8552;48.120;-1.456;2022-09-21T14:10:04;0.82;;;0.30;;
16870;SDS011;8552;48.120;-1.456;2022-09-21T14:12:23;1.60;;;0.20;;
16870;SDS011;8552;48.120;-1.456;2022-09-21T14:21:06;1.73;;;0.30;;
16870;SDS011;8552;48.120;-1.456;2022-09-21T14:23:32;0.52;;;0.32;;
16870;SDS011;8552;48.120;-1.456;2022-09-21T14:25:59;3.78;;;0.50;;
16870;SDS011;8552;48.120;-1.456;2022-09-21T14:31:23;0.65;;;0.30;;
16870;SDS011;8552;48.120;-1.456;2022-09-21T14:33:53;2.25;;;0.47;;
16870;SDS011;8552;48.120;-1.456;2022-09-21T14:36:25;2.50;;;0.32;;
16870;SDS011;8552;48.120;-1.456;2022-09-21T14:39:00;1.20;;;0.30;;
16870;SDS011;8552;48.120;-1.456;2022-09-21T14:41:31;0.80;;;0.40;;
16870;SDS011;8552;48.120;-1.456;2022-09-21T14:44:05;2.05;;;0.80;;
16870;SDS011;8552;48.120;-1.456;2022-09-21T14:46:53;4.57;;;0.40;;
16870;SDS011;8552;48.120;-1.456;2022-09-21T14:55:25;0.75;;;0.28;;
16870;SDS011;8552;48.120;-1.456;2022-09-21T15:06:36;0.20;;;0.20;;
16870;SDS011;8552;48.120;-1.456;2022-09-21T15:12:49;0.95;;;0.30;;
16870;SDS011;8552;48.120;-1.456;2022-09-21T15:18:14;0.40;;;0.20;;
16870;SDS011;8552;48.120;-1.456;2022-09-21T15:20:53;0.90;;;0.40;;
16870;SDS011;8552;48.120;-1.456;2022-09-21T15:23:26;1.70;;;0.40;;
16870;SDS011;8552;48.120;-1.456;2022-09-21T15:25:55;0.65;;;0.40;;
16870;SDS011;8552;48.120;-1.456;2022-09-21T15:28:33;1.48;;;0.40;;
16870;SDS011;8552;48.120;-1.456;2022-09-21T15:31:06;1.17;;;0.40;;
16870;SDS011;8552;48.120;-1.456;2022-09-21T15:33:39;2.05;;;0.50;;
16870;SDS011;8552;48.120;-1.456;2022-09-21T15:36:06;0.57;;;0.28;;
16870;SDS011;8552;48.120;-1.456;2022-09-21T15:38:34;0.55;;;0.30;;
16870;SDS011;8552;48.120;-1.456;2022-09-21T15:41:04;1.05;;;0.77;;
16870;SDS011;8552;48.120;-1.456;2022-09-21T15:43:43;1.50;;;0.40;;
16870;SDS011;8552;48.120;-1.456;2022-09-21T15:46:23;2.28;;;0.38;;
16870;SDS011;8552;48.120;-1.456;2022-09-21T15:48:49;0.88;;;0.50;;
16870;SDS011;8552;48.120;-1.456;2022-09-21T15:51:23;0.45;;;0.28;;
16870;SDS011;8552;48.120;-1.456;2022-09-21T15:54:01;0.57;;;0.30;;
16870;SDS011;8552;48.120;-1.456;2022-09-21T15:56:33;1.35;;;0.45;;
16870;SDS011;8552;48.120;-1.456;2022-09-21T15:59:02;0.50;;;0.35;;
16870;SDS011;8552;48.120;-1.456;2022-09-21T16:01:37;1.55;;;0.40;;
16870;SDS011;8552;48.120;-1.456;2022-09-21T16:04:07;0.95;;;0.50;;
16870;SDS011;8552;48.120;-1.456;2022-09-21T16:11:53;0.45;;;0.45;;
16870;SDS011;8552;48.120;-1.456;2022-09-21T16:14:19;1.35;;;0.40;;
16870;SDS011;8552;48.120;-1.456;2022-09-21T16:19:39;0.60;;;0.52;;
16870;SDS011;8552;48.120;-1.456;2022-09-21T16:22:08;1.40;;;0.47;;
16870;SDS011;8552;48.120;-1.456;2022-09-21T16:24:47;0.45;;;0.40;;
16870;SDS011;8552;48.120;-1.456;2022-09-21T16:27:16;1.75;;;0.73;;
16870;SDS011;8552;48.120;-1.456;2022-09-21T16:29:43;0.60;;;0.47;;
16870;SDS011;8552;48.120;-1.456;2022-09-21T16:34:42;0.68;;;0.40;;
16870;SDS011;8552;48.120;-1.456;2022-09-21T16:39:50;1.17;;;0.47;;
16870;SDS011;8552;48.120;-1.456;2022-09-21T16:42:15;1.65;;;1.27;;
16870;SDS011;8552;48.120;-1.456;2022-09-21T16:44:43;0.90;;;0.30;;
16870;SDS011;8552;48.120;-1.456;2022-09-21T16:47:16;0.40;;;0.40;;
16870;SDS011;8552;48.120;-1.456;2022-09-21T16:49:58;0.75;;;0.50;;
16870;SDS011;8552;48.120;-1.456;2022-09-21T16:52:28;0.90;;;0.40;;
16870;SDS011;8552;48.120;-1.456;2022-09-21T16:54:54;1.52;;;0.40;;
16870;SDS011;8552;48.120;-1.456;2022-09-21T16:57:22;0.50;;;0.30;;
16870;SDS011;8552;48.120;-1.456;2022-09-21T16:59:49;1.10;;;0.40;;
16870;SDS011;8552;48.120;-1.456;2022-09-21T17:02:15;0.50;;;0.50;;
16870;SDS011;8552;48.120;-1.456;2022-09-21T17:04:41;1.02;;;0.80;;
16870;SDS011;8552;48.120;-1.456;2022-09-21T17:07:09;0.50;;;0.50;;
16870;SDS011;8552;48.120;-1.456;2022-09-21T17:09:37;1.27;;;0.60;;
16870;SDS011;8552;48.120;-1.456;2022-09-21T17:12:08;0.90;;;0.43;;
16870;SDS011;8552;48.120;-1.456;2022-09-21T17:14:35;1.42;;;0.52;;
16870;SDS011;8552;48.120;-1.456;2022-09-21T17:19:35;1.02;;;0.55;;
16870;SDS011;8552;48.120;-1.456;2022-09-21T17:22:02;0.57;;;0.40;;
16870;SDS011;8552;48.120;-1.456;2022-09-21T17:24:29;1.95;;;0.50;;
16870;SDS011;8552;48.120;-1.456;2022-09-21T17:26:55;0.45;;;0.40;;
16870;SDS011;8552;48.120;-1.456;2022-09-21T17:29:22;2.38;;;0.50;;
16870;SDS011;8552;48.120;-1.456;2022-09-21T17:31:55;1.05;;;0.40;;
16870;SDS011;8552;48.120;-1.456;2022-09-21T17:34:25;0.40;;;0.40;;
16870;SDS011;8552;48.120;-1.456;2022-09-21T17:36:52;1.75;;;0.63;;
16870;SDS011;8552;48.120;-1.456;2022-09-21T17:39:19;1.23;;;0.60;;
16870;SDS011;8552;48.120;-1.456;2022-09-21T17:41:50;0.40;;;0.40;;
16870;SDS011;8552;48.120;-1.456;2022-09-21T17:47:27;0.90;;;0.60;;
16870;SDS011;8552;48.120;-1.456;2022-09-21T17:49:54;0.73;;;0.68;;
16870;SDS011;8552;48.120;-1.456;2022-09-21T17:52:26;0.80;;;0.55;;
16870;SDS011;8552;48.120;-1.456;2022-09-21T17:55:11;0.50;;;0.50;;
16870;SDS011;8552;48.120;-1.456;2022-09-21T18:00:19;2.63;;;0.85;;
16870;SDS011;8552;48.120;-1.456;2022-09-21T18:02:51;3.80;;;1.17;;
16870;SDS011;8552;48.120;-1.456;2022-09-21T18:05:28;3.22;;;1.23;;
16870;SDS011;8552;48.120;-1.456;2022-09-21T18:07:54;2.03;;;0.70;;
16870;SDS011;8552;48.120;-1.456;2022-09-21T18:10:21;1.75;;;0.77;;
16870;SDS011;8552;48.120;-1.456;2022-09-21T18:13:05;0.95;;;0.60;;
16870;SDS011;8552;48.120;-1.456;2022-09-21T18:15:48;2.08;;;0.68;;
16870;SDS011;8552;48.120;-1.456;2022-09-21T18:18:45;0.40;;;0.32;;
16870;SDS011;8552;48.120;-1.456;2022-09-21T18:21:22;1.42;;;0.55;;
16870;SDS011;8552;48.120;-1.456;2022-09-21T18:26:36;2.25;;;0.60;;
16870;SDS011;8552;48.120;-1.456;2022-09-21T18:29:03;0.75;;;0.75;;
16870;SDS011;8552;48.120;-1.456;2022-09-21T18:31:48;1.15;;;0.90;;
16870;SDS011;8552;48.120;-1.456;2022-09-21T18:36:59;2.00;;;0.60;;
16870;SDS011;8552;48.120;-1.456;2022-09-21T18:45:34;1.02;;;0.93;;
16870;SDS011;8552;48.120;-1.456;2022-09-21T18:50:48;2.17;;;1.00;;
16870;SDS011;8552;48.120;-1.456;2022-09-21T18:53:41;0.60;;;0.60;;
16870;SDS011;8552;48.120;-1.456;2022-09-21T18:56:14;1.35;;;0.68;;
16870;SDS011;8552;48.120;-1.456;2022-09-21T18:58:40;0.47;;;0.43;;
16870;SDS011;8552;48.120;-1.456;2022-09-21T19:01:10;0.70;;;0.70;;
16870;SDS011;8552;48.120;-1.456;2022-09-21T19:03:37;1.20;;;0.60;;
16870;SDS011;8552;48.120;-1.456;2022-09-21T19:26:17;2.05;;;1.00;;
16870;SDS011;8552;48.120;-1.456;2022-09-21T19:31:22;6.70;;;3.05;;
16870;SDS011;8552;48.120;-1.456;2022-09-21T19:33:48;4.53;;;1.00;;
16870;SDS011;8552;48.120;-1.456;2022-09-21T19:36:14;1.00;;;0.60;;
16870;SDS011;8552;48.120;-1.456;2022-09-21T19:38:40;4.00;;;0.73;;
16870;SDS011;8552;48.120;-1.456;2022-09-21T19:41:13;2.60;;;0.80;;
16870;SDS011;8552;48.120;-1.456;2022-09-21T19:44:05;1.58;;;0.60;;